ADDS METAR Data INFO
IDs: Format: Raw Decoded Include TAF

Data at: 2054 UTC 26 May 2017

KGYI 262035Z AUTO 21008G17KT 10SM CLR 34/22 A2975 RMK AO2 T03440220
KGYI 262015Z AUTO 21013KT 10SM CLR 34/22 A2975 RMK AO2 T03430222
KGYI 261955Z AUTO 22013G17KT 10SM CLR 34/22 A2976 RMK AO2 T03390222
KGYI 261935Z AUTO 23016G19KT 10SM SCT044 33/22 A2976 RMK AO2 T03340224
KGYI 261915Z AUTO 20011G17KT 10SM CLR 33/22 A2976 RMK AO2 T03340221
KGYI 261855Z AUTO 23015G18KT 10SM CLR 33/22 A2977 RMK AO2 T03300223
KGYI 261815Z AUTO 22010G15KT 10SM CLR 32/23 A2977 RMK AO2 T03240228
KGYI 261755Z AUTO 20016G21KT 10SM CLR 32/23 A2977 RMK AO2 T03170225 10319 20230
KGYI 261735Z AUTO 21015G22KT 10SM CLR 31/23 A2977 RMK AO2 T03140226
KGYI 261715Z AUTO 21018KT 10SM CLR 31/23 A2977 RMK AO2 T03100227
KGYI 261655Z AUTO 20018KT 10SM CLR 30/22 A2977 RMK AO2 T03020224
KGYI 261635Z AUTO 20017KT 10SM CLR 30/22 A2976 RMK AO2 T02990222
KGYI 261615Z AUTO 21017G23KT 10SM CLR 29/22 A2977 RMK AO2 T02900219
KGYI 261555Z AUTO 22016G23KT 10SM CLR 29/22 A2976 RMK AO2 T02940222
KGYI 261535Z AUTO 21015G23KT 10SM CLR 29/22 A2977 RMK AO2 T02870218
KGYI 261515Z AUTO 19018G22KT 10SM CLR 28/22 A2976 RMK AO2 T02820220
KGYI 261455Z AUTO 20020G25KT 10SM CLR 28/22 A2975 RMK AO2 T02760218
KGYI 261435Z AUTO 20018G23KT 10SM CLR 27/22 A2975 RMK AO2 T02690216
KGYI 261415Z AUTO 20017G21KT 10SM SCT019 SCT025 27/22 A2975 RMK AO2 T02660216
KGYI 261355Z AUTO 19018G24KT 10SM SCT019 SCT025 26/22 A2975 RMK AO2 T02550215
KGYI 261335Z AUTO 20010G21KT 10SM SCT021 SCT025 25/22 A2975 RMK AO2 T02520215
KGYI 261315Z AUTO 21012G23KT 10SM SCT021 25/21 A2974 RMK AO2 T02460212
KGYI 261255Z AUTO 20017G24KT 10SM CLR 24/21 A2972 RMK AO2 T02410211
KGYI 261235Z AUTO 20015G22KT 10SM CLR 24/21 A2972 RMK AO2 T02390211
KGYI 261215Z AUTO 19016G22KT 10SM CLR 23/21 A2971 RMK AO2 T02320210
KGYI 261155Z AUTO 19019G24KT 10SM CLR 23/21 A2971 RMK AO2 T02300207 10243 20223
KGYI 261135Z AUTO 19019G27KT 10SM CLR 23/21 A2970 RMK AO2 T02290205
KGYI 261115Z AUTO 19017G25KT 10SM CLR 23/21 A2969 RMK AO2 T02270205
KGYI 261055Z AUTO 19018G23KT 10SM CLR 23/21 A2968 RMK AO2 T02260205
KGYI 261035Z AUTO 19018G25KT 10SM CLR 23/20 A2968 RMK AO2 T02250202
KGYI 261015Z AUTO 19020G25KT 10SM CLR 22/20 A2968 RMK AO2 T02240199
KGYI 260955Z AUTO 19018G24KT 10SM CLR 23/20 A2967 RMK AO2 T02250196
KGYI 260935Z AUTO 19017G24KT 10SM CLR 23/19 A2967 RMK AO2 T02250193
KGYI 260915Z AUTO 18018G24KT 10SM CLR 23/19 A2966 RMK AO2 T02250190
KGYI 260855Z AUTO 18018G23KT 10SM CLR 23/19 A2966 RMK AO2 T02250187
KGYI 260835Z AUTO 19017G23KT 10SM CLR 23/18 A2965 RMK AO2 T02260183
KGYI 260815Z AUTO 18013KT 10SM CLR 23/18 A2965 RMK AO2 T02260180
KGYI 260750Z AUTO 18015G21KT 10SM CLR 23/18 A2965 RMK AO2 T02280175
KGYI 260735Z AUTO 18014G20KT 10SM CLR 23/17 A2965 RMK AO2 T02310172
KGYI 260715Z AUTO 18014G19KT 10SM CLR 23/17 A2965 RMK AO2 T02320167
KGYI 260655Z AUTO 18013G21KT 10SM CLR 24/17 A2965 RMK AO2 T02380165
KGYI 260635Z AUTO 18017G22KT 10SM CLR 24/16 A2964 RMK AO2 T02400161
KGYI 260615Z AUTO 18018G25KT 10SM CLR 24/16 A2964 RMK AO2 T02420159
KGYI 260555Z AUTO 18014G21KT 10SM CLR 24/16 A2964 RMK AO2 T02410155 10293 20240 403110139
KGYI 260535Z AUTO 17015G19KT 10SM CLR 24/15 A2964 RMK AO2 LTG DSNT N T02410150
KGYI 260515Z AUTO 17014KT 10SM CLR 24/15 A2964 RMK AO2 T02420148
KGYI 260455Z AUTO 17014G19KT 10SM CLR 25/15 A2964 RMK AO2 T02450146
KGYI 260435Z AUTO 17015G20KT 10SM CLR 25/15 A2964 RMK AO2 T02510145
KGYI 260415Z AUTO 17017G25KT 10SM CLR 26/14 A2963 RMK AO2 T02560144
KGYI 260355Z AUTO 16014G26KT 10SM CLR 26/15 A2963 RMK AO2 T02590148
KGYI 260335Z AUTO 16015G21KT 10SM CLR 26/16 A2962 RMK AO2 T02600155
KGYI 260315Z AUTO 16015G19KT 10SM CLR 26/16 A2962 RMK AO2 T02610160
KGYI 260255Z AUTO 15011KT 10SM CLR 26/16 A2962 RMK AO2 T02640158
KGYI 260235Z AUTO 15013KT 10SM CLR 27/16 A2961 RMK AO2 T02650155
KGYI 260215Z AUTO 15014KT 10SM CLR 27/16 A2961 RMK AO2 T02700155
KGYI 260155Z AUTO 16012KT 10SM CLR 27/16 A2961 RMK AO2 T02720155
KGYI 260135Z AUTO 16012G16KT 10SM CLR 28/16 A2961 RMK AO2 T02750155
KGYI 260115Z AUTO 17013KT 10SM CLR 28/16 A2960 RMK AO2 T02800157
KGYI 260055Z AUTO 16015G19KT 10SM CLR 29/16 A2960 RMK AO2 T02860159
KGYI 260035Z AUTO 16006G15KT 10SM CLR 29/16 A2960 RMK AO2 T02900162
KGYI 260015Z AUTO 17016G19KT 10SM CLR 29/16 A2960 RMK AO2 T02910159
KGYI 252355Z AUTO 18017G22KT 10SM CLR 29/16 A2961 RMK AO2 T02930157 10311 20283
KGYI 252335Z AUTO 17015G26KT 10SM CLR 30/16 A2961 RMK AO2 T02980156
KGYI 252315Z AUTO 19022G27KT 10SM CLR 30/16 A2961 RMK AO2 T03040155
KGYI 252255Z AUTO 17017G21KT 10SM CLR 31/15 A2961 RMK AO2 T03070152
KGYI 252235Z AUTO 19018G26KT 10SM CLR 31/15 A2961 RMK AO2 T03060150
KGYI 252215Z AUTO 17019G26KT 10SM CLR 30/15 A2961 RMK AO2 T03020148
KGYI 252155Z AUTO 17020G25KT 10SM CLR 31/15 A2961 RMK AO2 T03100153
KGYI 252135Z AUTO 17015G23KT 10SM CLR 31/15 A2961 RMK AO2 T03090153
KGYI 252115Z AUTO 16016G23KT 10SM CLR 31/15 A2962 RMK AO2 T03100152
KGYI 252055Z AUTO 18016G20KT 10SM CLR 31/15 A2962 RMK AO2 T03080149
KGYI 252035Z AUTO 16018G25KT 10SM CLR 31/14 A2962 RMK AO2 T03060144
KGYI 252015Z AUTO 16017G22KT 10SM CLR 30/14 A2963 RMK AO2 T03030142
KGYI 251955Z AUTO 15017G22KT 10SM CLR 30/14 A2963 RMK AO2 T03040144
KGYI 251935Z AUTO 17015G25KT 10SM CLR 30/14 A2964 RMK AO2 T03010144
KGYI 251915Z AUTO 17017G24KT 10SM CLR 30/15 A2965 RMK AO2 T03010145
KGYI 251855Z AUTO 17016G22KT 10SM CLR 30/15 A2965 RMK AO2 T02980146
KGYI 251835Z AUTO 16014G20KT 10SM CLR 30/15 A2966 RMK AO2 T02950149
KGYI 251815Z AUTO 17014G20KT 10SM CLR 29/14 A2966 RMK AO2 T02860142
KGYI 251755Z AUTO 17015G21KT 10SM CLR 28/14 A2967 RMK AO2 T02810141 10282 20147
KGYI 251735Z AUTO 17010G20KT 10SM CLR 28/14 A2967 RMK AO2 T02800136
KGYI 251715Z AUTO 17015G20KT 10SM CLR 28/13 A2968 RMK AO2 T02750133
KGYI 251655Z AUTO 17014G19KT 10SM CLR 27/13 A2969 RMK AO2 T02690130
KGYI 251635Z AUTO 20013G22KT 10SM CLR 27/12 A2970 RMK AO2 T02670124
KGYI 251615Z AUTO 16013G16KT 10SM CLR 26/12 A2970 RMK AO2 T02580122
KGYI 251555Z AUTO 18015KT 10SM CLR 25/12 A2971 RMK AO2 T02540123
KGYI 251535Z AUTO 17009G17KT 10SM CLR 25/12 A2972 RMK AO2 T02450123
KGYI 251515Z AUTO 17011G15KT 10SM CLR 24/12 A2972 RMK AO2 T02400121
KGYI 251455Z AUTO 16003KT 10SM CLR 23/12 A2973 RMK AO2 T02280120
KGYI 251435Z AUTO 15010G14KT 10SM CLR 22/12 A2972 RMK AO2 T02150116
KGYI 251415Z AUTO 15013G18KT 10SM CLR 21/11 A2973 RMK AO2 T02060113
KGYI 251355Z AUTO 15012G16KT 10SM CLR 20/11 A2972 RMK AO2 T01960107
KGYI 251335Z AUTO 15014G18KT 10SM CLR 19/10 A2972 RMK AO2 T01900103
KGYI 251315Z AUTO 14016G20KT 10SM CLR 19/10 A2973 RMK AO2 T01850096
KGYI 251255Z AUTO 14011G17KT 10SM CLR 18/09 A2973 RMK AO2 T01750094
KGYI 251235Z AUTO 13006G15KT 10SM CLR 17/09 A2974 RMK AO2 T01650092
KGYI 251215Z AUTO 12010G16KT 10SM CLR 16/09 A2973 RMK AO2 T01560091
KGYI 251155Z AUTO 12011G15KT 10SM CLR 15/09 A2972 RMK AO2 T01460092 10160 20139
KGYI 251135Z AUTO 11012KT 10SM CLR 14/09 A2972 RMK AO2 T01420091
KGYI 251115Z AUTO 11010G14KT 10SM CLR 14/09 A2972 RMK AO2 T01400090
KGYI 251055Z AUTO 11010KT 10SM CLR 14/09 A2972 RMK AO2 T01390090
KGYI 251035Z AUTO 00000KT 10SM CLR 14/09 A2972 RMK AO2 T01440088
KGYI 251015Z AUTO 00000KT 10SM CLR 15/09 A2972 RMK AO2 T01470086
KGYI 250955Z AUTO 00000KT 10SM CLR 15/09 A2972 RMK AO2 T01500085
KGYI 250935Z AUTO 13007G14KT 10SM CLR 15/08 A2973 RMK AO2 T01520083
KGYI 250915Z AUTO 00000KT 10SM CLR 15/08 A2972 RMK AO2 T01500082
KGYI 250855Z AUTO 00000KT 10SM CLR 15/08 A2972 RMK AO2 T01530081


Page loaded:  20:54 UTC  |   01:54 PM Pacific  |   02:54 PM Mountain  |   03:54 PM Central  |   04:54 PM Eastern

 

ADVISORIES

FORECASTS

FORECASTS

OBSERVATIONS

USER TOOLS

ABOUT US